Aérodrome :
LOGIN :

S'inscrire | Disclaimer

   EN    FR    IT 

 










Légende :    VFR   VFR Marginal   IFR   IFR Intensif   IFR Très Intensif
Visi : 
Plafond : 
>= 8 km
>= 3000ft
5 à 8 km
1000 à 3000 ft
1500m à 5 km
500 à 1000 ft
800 à 1500m
200 à 500 ft
< 800m
< 200 ft
Symboles :   Orages  Brouillard  Fortes neiges  Fortes précipitations  Vent > 20 kt
SIGMETs :   Divers  Orages  Givrage  Turbulence  Onde Orograph.  Cendres Volcan.







- Altitude de l'aérodrome : 13 ft
- Code IATA : OST


EBOS - Oostend bruges Int.

DERNIER METAR :
  • 151120Z 22005KT 9999 SCT019 05/03 Q0994 TEMPO 3000 SHRAGS BKN009 BKN014CB

METARs EXPIRÉS :
  • 151050Z 20008KT 9999 SCT015 BKN044 04/02 Q0994 TEMPO 3000 SHRAGS BKN009 BKN014CB
  • 151020Z 20006KT 9999 SCT015 BKN044 03/01 Q0993 TEMPO 3000 SHRAGS BKN009 BKN014CB
  • 150950Z 20009KT 8000 -SHRA FEW007 SCT015 BKN038 03/01 Q0993 TEMPO 3000 SHRAGS BKN009 BKN014CB
  • 150920Z 21006KT 8000 FEW015CB SCT017 03/01 Q0993 TEMPO 3000 SHRAGS BKN009 BKN014CB
  • 150850Z 21007KT 8000 -SHRA FEW009 FEW015CB BKN017 02/01 Q0992 TEMPO 3000 SHRAGS BKN009 BKN014CB

TAF TAF EBOS
Valide du 15 à 12h jusqu'au 16 à 18h UTC


151110Z 1512/1618 22006KT 9999 SCT014CB BKN020
TEMPO 1512/1618 3000 SHRAGS BKN009 BKN014CB
Pas de NOTAMs connus pour ce terrain.



MET'MAP, la Météo Aéronautique d'un coup d'oeil ! - Copyright ORBIFLY Décembre 2007 - Disclaimer

ORBIFLY MET'MAP TEAM :

Programmation & Développement : Alexandra Zaïnal
Conception & Développement : Baudouin d'Aumeries
Co-Programmation & Développement : Marc-Olivier Méhu
Soutien technique & logistique : Manuel Goepfert

Contact : metmap@orbifly.com




SOURCES & CREDITS :

   NOAA